GreenTxt   -   no warnings

Nearby METAR Reports

 

ENZV - Stavanger
Dati ricevuti: 16/10/2018 16:50
Nuvoloso
Nuvoloso
 Vento da SSE
Vento: SSE 28 km/h
Temperatura: 13°C
P.to Rugiada: 8°C
Umidità: 72%
Barometro: 1014 hPa
Clouds: Nuvoloso
Visibility: 10 km
2018/10/16 14:50 ENZV 161450Z 16015KT 9999 FEW030 BKN045 13/08 Q1014 NOSIG
ENBR - Bergen
Dati ricevuti: 16/10/2018 16:50
Nuvoloso
Nuvoloso
 Vento da S
Vento: S 28 km/h
Temperatura: 11°C
P.to Rugiada: 7°C
Umidità: 77%
Barometro: 1013 hPa
Clouds: Nuvoloso
Visibility: 10 km
2018/10/16 14:50 ENBR 161450Z 17015KT 9999 FEW014 BKN060 11/07 Q1013 NOSIG RMK WIND 1200FT 16026G40KT
 
ENHD - Haugesund
Dati ricevuti: 16/10/2018 16:50
Nuvoloso
Nuvoloso
 Vento da S
Vento: S 33 km/h, Raffica: 57 km/h
Temperatura: 12°C
P.to Rugiada: 7°C
Umidità: 72%
Barometro: 1013 hPa
Clouds: Nuvoloso
Visibility: 10 km
2018/10/16 14:50 ENHD 161450Z 17018G31KT 9999 FEW035 BKN045 12/07 Q1013
ENCN - Kristiansand
Dati ricevuti: 16/10/2018 16:50
Nuvoloso
Nuvoloso
 Vento da ENE
Vento: ENE 11 km/h
Temperatura: 10°C
Temperatura Vento: 8°C
P.to Rugiada: 9°C
Umidità: 94%
Barometro: 1017 hPa
Clouds: Nuvoloso
Visibility: 10 km
2018/10/16 14:50 ENCN 161450Z 06006KT 9999 BKN006 10/09 Q1017
 
ENBO - Bodø
Dati ricevuti: 16/10/2018 16:50
Nuvoloso
Nuvoloso
 Vento da SSE
Vento: SSE 13 km/h
Temperatura: 8°C
Temperatura Vento: 6°C
P.to Rugiada: 6°C
Umidità: 87%
Barometro: 1014 hPa
Clouds: Nuvoloso
Visibility: 10 km
2018/10/16 14:50 ENBO 161450Z 15007KT 9999 FEW020 BKN035 08/06 Q1014 BECMG 09010KT
ENKR - Kirkenes
Dati ricevuti: 16/10/2018 16:50
Sereno
Sereno
 Vento da O
Vento: O 19 km/h
Temperatura: 4°C
Temperatura Vento: 0°C
P.to Rugiada: 1°C
Umidità: 81%
Barometro: 1007 hPa
Summary: Sereno
Visibility: greater than 10 km
2018/10/16 14:50 ENKR 161450Z 27010KT CAVOK 04/01 Q1007 RMK WIND 731FT 25010KT
 
ENVA - Trondheim
Dati ricevuti: 16/10/2018 16:50
Sereno
Sereno
 Vento da SE
Vento: SE 9 km/h
Temperatura: 12°C
P.to Rugiada: 0°C
Umidità: 44%
Barometro: 1013 hPa
Summary: Sereno
Visibility: greater than 10 km
2018/10/16 14:50 ENVA 161450Z 14005KT 050V180 CAVOK 12/00 Q1013 NOSIG RMK WIND 670FT 16018KT
ENGM - Oslo
Dati ricevuti: 16/10/2018 16:50
Nuvoloso
Nuvoloso
 Vento da ESE
Vento: ESE 6 km/h
Temperatura: 7°C
P.to Rugiada: 4°C
Umidità: 81%
Barometro: 1017 hPa
Clouds: Nuvoloso
Visibility: 10 km
2018/10/16 14:50 ENGM 161450Z 12003KT 050V170 9999 BKN009 07/04 Q1017 NOSIG